Time;durP1;ratioP1;P1;durP2;ratioP2;P2;SDS_P1;SDS_P2;PMS_P1;PMS_P2;Temp;Humidity;BMP_temperature;BMP_pressure;BME280_temperature;BME280_humidity;BME280_pressure;Samples;Min_cycle;Max_cycle;Signal;HPM_P1;HPM_P2
2022/05/14 00:00:17;;;;;;;9.95;9.00;;;18.70;99.90;;;;;;5072235;28;20205;-76
2022/05/14 00:02:45;;;;;;;9.98;9.07;;;18.60;99.90;;;;;;5072171;28;20554;-76
2022/05/14 00:05:12;;;;;;;10.27;9.27;;;18.60;99.90;;;;;;5072742;28;20203;-76
2022/05/14 00:07:39;;;;;;;9.93;8.98;;;18.60;99.90;;;;;;5072348;28;20210;-76
2022/05/14 00:10:08;;;;;;;10.93;9.27;;;18.60;99.90;;;;;;5072609;28;20283;-74
2022/05/14 00:15:21;;;;;;;13.18;9.85;;;18.40;99.90;;;;;;5072691;28;20204;-74
2022/05/14 00:17:47;;;;;;;10.05;9.05;;;18.40;99.90;;;;;;5071834;28;20255;-74
2022/05/14 00:20:16;;;;;;;10.18;9.30;;;18.40;99.90;;;;;;5072390;28;20206;-73
2022/05/14 00:22:43;;;;;;;10.68;9.68;;;18.40;99.90;;;;;;5071976;28;20276;-74
2022/05/14 00:25:11;;;;;;;10.75;8.90;;;18.20;99.90;;;;;;5072161;28;20662;-74
2022/05/14 00:27:42;;;;;;;12.38;10.43;;;18.20;99.90;;;;;;5071985;28;20206;-74
2022/05/14 00:30:12;;;;;;;10.77;9.68;;;18.20;99.90;;;;;;5072145;28;20285;-74
2022/05/14 00:32:41;;;;;;;11.02;9.48;;;18.20;99.90;;;;;;5071386;28;20202;-74
2022/05/14 00:35:09;;;;;;;11.88;10.77;;;18.20;99.90;;;;;;5071828;28;20259;-74
2022/05/14 00:37:37;;;;;;;10.85;9.95;;;18.20;99.90;;;;;;5071545;28;20621;-74
2022/05/14 00:40:07;;;;;;;10.93;9.82;;;18.20;99.90;;;;;;5071874;28;20202;-74
2022/05/14 00:42:34;;;;;;;10.23;9.35;;;18.20;99.90;;;;;;5071395;28;20263;-74
2022/05/14 00:45:01;;;;;;;11.23;10.18;;;18.20;99.90;;;;;;5071786;28;20198;-74
2022/05/14 00:47:32;;;;;;;10.00;9.10;;;18.20;99.90;;;;;;5071317;28;20248;-74
2022/05/14 00:50:00;;;;;;;10.57;9.68;;;18.20;99.90;;;;;;5071536;28;20615;-74
2022/05/14 00:52:28;;;;;;;10.80;9.70;;;18.10;99.90;;;;;;5071300;28;20206;-74
2022/05/14 00:55:01;;;;;;;10.70;9.65;;;18.10;99.90;;;;;;5071617;28;20229;-74
2022/05/14 00:57:32;;;;;;;10.57;9.07;;;18.10;99.90;;;;;;5071281;28;20627;-75
2022/05/14 01:00:01;;;;;;;11.73;10.68;;;18.10;99.90;;;;;;5071394;28;20259;-73
2022/05/14 01:02:28;;;;;;;12.52;10.65;;;18.10;99.90;;;;;;5071071;28;20295;-74
2022/05/14 01:04:56;;;;;;;10.77;9.77;;;18.10;99.90;;;;;;5071233;28;20198;-74
2022/05/14 01:07:24;;;;;;;9.85;8.90;;;18.10;99.90;;;;;;5071716;28;20217;-74
2022/05/14 01:09:58;;;;;;;11.18;9.20;;;18.00;99.90;;;;;;5071863;28;20198;-74
2022/05/14 01:12:27;;;;;;;11.77;10.18;;;18.00;99.90;;;;;;5070349;28;20206;-74
2022/05/14 01:14:54;;;;;;;11.43;10.32;;;17.90;99.90;;;;;;5071131;28;20264;-74
2022/05/14 01:17:21;;;;;;;9.70;8.70;;;18.00;99.90;;;;;;5071289;28;20727;-73
2022/05/14 01:19:48;;;;;;;13.60;10.32;;;17.90;99.90;;;;;;5071313;28;20289;-74
2022/05/14 01:22:35;;;;;;;10.25;9.07;;;17.80;99.90;;;;;;5071312;28;20233;-74
2022/05/14 01:27:56;;;;;;;14.10;9.70;;;17.50;99.90;;;;;;5071254;28;20573;-74
2022/05/14 01:30:23;;;;;;;11.50;10.32;;;17.50;99.90;;;;;;5070989;28;20237;-75
2022/05/14 01:33:04;;;;;;;11.07;9.82;;;17.60;99.90;;;;;;5071294;28;20206;-74
2022/05/14 01:35:32;;;;;;;11.27;9.05;;;17.60;99.90;;;;;;5070591;28;20263;-74
2022/05/14 01:37:59;;;;;;;10.55;9.65;;;17.50;99.90;;;;;;5070910;28;20210;-74
2022/05/14 01:40:26;;;;;;;10.85;9.55;;;17.40;99.90;;;;;;5070730;28;20209;-74
2022/05/14 01:42:53;;;;;;;12.25;11.00;;;17.40;99.90;;;;;;5071333;28;20241;-74
2022/05/14 01:45:21;;;;;;;11.27;10.02;;;17.50;99.90;;;;;;5070887;28;20254;-74
2022/05/14 01:47:48;;;;;;;10.70;9.57;;;17.60;99.90;;;;;;5070866;28;20655;-74
2022/05/14 01:50:16;;;;;;;9.95;8.93;;;17.60;99.90;;;;;;5070508;28;20206;-75
2022/05/14 01:52:43;;;;;;;12.23;11.02;;;17.50;99.90;;;;;;5070226;28;20256;-74
2022/05/14 01:55:10;;;;;;;12.20;10.88;;;17.50;99.90;;;;;;5070993;28;20279;-74
2022/05/14 01:57:37;;;;;;;14.88;9.00;;;17.50;99.90;;;;;;5070506;28;20210;-75
2022/05/14 02:00:05;;;;;;;10.23;9.30;;;17.40;99.90;;;;;;5070645;28;20206;-73
2022/05/14 02:02:34;;;;;;;11.23;10.25;;;17.40;99.90;;;;;;5070121;28;20767;-74
2022/05/14 02:05:01;;;;;;;9.52;8.73;;;17.40;99.90;;;;;;5070515;28;20259;-74
2022/05/14 02:07:28;;;;;;;11.00;9.90;;;17.30;99.90;;;;;;5070176;28;20198;-74
2022/05/14 02:09:55;;;;;;;11.02;9.93;;;17.40;99.90;;;;;;5070564;28;20622;-74
2022/05/14 02:12:22;;;;;;;12.05;10.82;;;17.40;99.90;;;;;;5070871;28;20206;-74
2022/05/14 02:14:49;;;;;;;10.77;9.77;;;17.30;99.90;;;;;;5070627;28;20263;-74
2022/05/14 02:17:16;;;;;;;12.35;9.45;;;17.10;99.90;;;;;;5070403;28;20296;-75
2022/05/14 02:19:44;;;;;;;10.88;9.77;;;17.10;99.90;;;;;;5070106;28;20206;-74
2022/05/14 02:22:11;;;;;;;12.27;11.07;;;17.00;99.90;;;;;;5070640;28;20286;-75
2022/05/14 02:24:38;;;;;;;10.70;9.40;;;16.90;99.90;;;;;;5074015;28;20669;-75
2022/05/14 02:27:06;;;;;;;16.27;11.85;;;16.80;99.90;;;;;;5074321;28;20288;-74
2022/05/14 02:32:15;;;;;;;13.27;10.05;;;17.00;99.90;;;;;;5074222;28;20208;-74
2022/05/14 02:34:42;;;;;;;11.30;10.10;;;16.90;99.90;;;;;;5074219;28;20206;-74
2022/05/14 02:37:10;;;;;;;13.02;9.77;;;17.00;99.90;;;;;;5074452;28;20202;-75
2022/05/14 02:39:37;;;;;;;18.38;11.18;;;17.10;99.90;;;;;;5073996;28;20206;-74
2022/05/14 02:42:04;;;;;;;11.27;9.55;;;17.10;99.90;;;;;;5074032;28;20230;-74
2022/05/14 02:44:31;;;;;;;10.52;9.48;;;17.00;99.90;;;;;;5073792;28;20202;-74
2022/05/14 02:46:58;;;;;;;10.80;9.75;;;17.10;99.90;;;;;;5074184;28;20206;-74
2022/05/14 02:49:25;;;;;;;13.48;10.40;;;17.10;99.90;;;;;;5073718;28;20210;-74
2022/05/14 02:51:53;;;;;;;11.68;10.57;;;17.10;99.90;;;;;;5074394;28;20202;-73
2022/05/14 02:54:21;;;;;;;12.48;11.18;;;17.20;99.90;;;;;;5074417;28;20592;-73
2022/05/14 02:56:48;;;;;;;10.80;9.73;;;17.10;99.90;;;;;;5073623;28;20621;-74
2022/05/14 02:59:15;;;;;;;10.45;9.45;;;17.10;99.90;;;;;;5073869;28;20206;-74
2022/05/14 03:01:48;;;;;;;10.98;9.85;;;17.10;99.90;;;;;;5073301;28;20226;-74
2022/05/14 03:04:16;;;;;;;12.57;11.48;;;17.10;99.90;;;;;;5073815;28;20221;-74
2022/05/14 03:06:43;;;;;;;11.50;10.43;;;17.00;99.90;;;;;;5073450;28;20289;-74
2022/05/14 03:09:10;;;;;;;10.98;9.93;;;17.00;99.90;;;;;;5073813;28;20198;-74
2022/05/14 03:11:40;;;;;;;15.77;11.60;;;16.90;99.90;;;;;;5072958;28;20208;-74
2022/05/14 03:14:07;;;;;;;12.45;11.35;;;16.80;99.90;;;;;;5073592;28;20630;-74
2022/05/14 03:16:34;;;;;;;11.15;9.80;;;16.70;99.90;;;;;;5073286;28;20263;-74
2022/05/14 03:19:01;;;;;;;11.45;10.18;;;16.70;99.90;;;;;;5073809;28;20263;-74
2022/05/14 03:21:28;;;;;;;12.63;10.70;;;16.80;99.90;;;;;;5073164;28;20295;-74
2022/05/14 03:23:55;;;;;;;13.32;10.35;;;16.70;99.90;;;;;;5073453;28;20259;-74
2022/05/14 03:26:22;;;;;;;12.23;10.23;;;16.70;99.90;;;;;;5073326;28;20202;-74
2022/05/14 03:28:50;;;;;;;11.45;10.35;;;16.60;99.90;;;;;;5073367;28;20280;-74
2022/05/14 03:31:17;;;;;;;12.68;9.68;;;16.60;99.90;;;;;;5073558;28;20250;-75
2022/05/14 03:33:44;;;;;;;10.77;9.73;;;16.40;99.90;;;;;;5073056;28;20626;-73
2022/05/14 03:36:11;;;;;;;10.80;9.70;;;16.40;99.90;;;;;;5072557;28;20662;-75
2022/05/14 03:38:39;;;;;;;11.43;9.80;;;16.40;99.90;;;;;;5072744;28;20610;-75
2022/05/14 03:41:06;;;;;;;10.63;9.55;;;16.40;99.90;;;;;;5072669;28;20206;-73
2022/05/14 03:43:33;;;;;;;11.00;9.90;;;16.40;99.90;;;;;;5072846;28;20203;-73
2022/05/14 03:46:02;;;;;;;12.73;10.25;;;16.40;99.90;;;;;;5073063;28;20658;-74
2022/05/14 03:48:29;;;;;;;11.40;10.38;;;16.30;99.90;;;;;;5072642;28;20267;-75
2022/05/14 03:50:56;;;;;;;11.95;9.55;;;16.20;99.90;;;;;;5073057;28;20206;-74
2022/05/14 03:53:23;;;;;;;11.25;10.23;;;16.20;99.90;;;;;;5072661;28;20210;-75
2022/05/14 03:55:50;;;;;;;11.93;10.82;;;16.20;99.90;;;;;;5073177;28;20255;-75
2022/05/14 03:58:17;;;;;;;13.80;10.43;;;16.20;99.90;;;;;;5072849;28;20622;-74
2022/05/14 04:00:44;;;;;;;11.85;10.85;;;16.30;99.90;;;;;;5072507;28;20624;-75
2022/05/14 04:03:13;;;;;;;12.50;9.98;;;16.20;99.90;;;;;;5072604;28;20782;-75
2022/05/14 04:05:40;;;;;;;10.95;9.82;;;16.20;99.90;;;;;;5072260;28;20202;-75
2022/05/14 04:08:07;;;;;;;12.48;10.45;;;16.20;99.90;;;;;;5072505;28;20666;-75
2022/05/14 04:10:35;;;;;;;11.98;10.70;;;16.20;99.90;;;;;;5071988;28;20229;-75
2022/05/14 04:13:02;;;;;;;10.57;9.48;;;16.20;99.90;;;;;;5072719;28;20259;-74
2022/05/14 04:15:29;;;;;;;11.95;10.93;;;16.20;99.90;;;;;;5072143;28;20558;-74
2022/05/14 04:17:56;;;;;;;18.25;12.00;;;16.20;99.90;;;;;;5072323;28;20669;-75
2022/05/14 04:20:25;;;;;;;12.10;9.57;;;16.20;99.90;;;;;;5072340;28;20202;-75
2022/05/14 04:22:52;;;;;;;13.23;10.88;;;16.20;99.90;;;;;;5072611;28;20324;-75
2022/05/14 04:25:20;;;;;;;12.07;10.48;;;16.20;99.90;;;;;;5072797;28;20210;-75
2022/05/14 04:27:47;;;;;;;12.85;11.13;;;16.20;99.90;;;;;;5072035;28;20279;-75
2022/05/14 04:30:15;;;;;;;14.40;11.80;;;16.20;99.90;;;;;;5072335;28;20237;-74
2022/05/14 04:32:43;;;;;;;12.45;11.15;;;16.20;99.90;;;;;;5071818;28;20206;-74
2022/05/14 04:35:10;;;;;;;11.82;10.30;;;16.10;99.90;;;;;;5072012;28;20251;-74
2022/05/14 04:37:39;;;;;;;11.93;10.82;;;16.20;99.90;;;;;;5071713;28;20199;-74
2022/05/14 04:40:09;;;;;;;11.50;10.40;;;16.10;99.90;;;;;;5072091;28;20206;-73
2022/05/14 04:42:38;;;;;;;11.55;10.35;;;16.10;99.90;;;;;;5071604;28;20279;-74
2022/05/14 04:45:06;;;;;;;11.60;10.38;;;16.10;99.90;;;;;;5071964;28;20591;-74
2022/05/14 04:47:32;;;;;;;12.70;11.05;;;16.20;99.90;;;;;;5071393;28;20206;-74
2022/05/14 04:49:59;;;;;;;10.45;9.55;;;16.10;99.90;;;;;;5071648;28;20209;-75
2022/05/14 04:52:26;;;;;;;11.52;10.50;;;16.10;99.90;;;;;;5071301;28;20198;-75
2022/05/14 04:54:55;;;;;;;13.05;9.70;;;16.10;99.90;;;;;;5071874;28;20206;-75
2022/05/14 04:57:22;;;;;;;11.25;10.00;;;16.10;99.90;;;;;;5071645;28;20252;-74
2022/05/14 04:59:49;;;;;;;11.35;10.20;;;16.10;99.90;;;;;;5071352;28;20251;-75
2022/05/14 05:05:00;;;;;;;11.70;10.27;;;16.30;99.90;;;;;;5071415;28;20202;-73
2022/05/14 05:07:27;;;;;;;11.00;9.68;;;16.30;99.90;;;;;;5070690;28;20673;-75
2022/05/14 05:09:55;;;;;;;11.80;10.52;;;16.20;99.90;;;;;;5071516;28;20210;-74
2022/05/14 05:12:22;;;;;;;13.73;10.75;;;16.30;99.90;;;;;;5071604;28;20206;-74
2022/05/14 05:14:49;;;;;;;14.38;11.25;;;16.40;99.90;;;;;;5071201;28;20790;-74
2022/05/14 05:17:16;;;;;;;12.85;11.52;;;16.50;99.90;;;;;;5071522;28;20198;-74
2022/05/14 05:19:43;;;;;;;12.98;11.75;;;16.40;99.90;;;;;;5070853;28;20259;-74
2022/05/14 05:22:10;;;;;;;12.05;10.82;;;16.50;99.90;;;;;;5071009;28;20647;-74
2022/05/14 05:24:37;;;;;;;11.90;10.70;;;16.50;99.90;;;;;;5070897;28;20279;-74
2022/05/14 05:27:06;;;;;;;12.32;11.23;;;16.60;99.90;;;;;;5071108;28;20240;-74
2022/05/14 05:29:33;;;;;;;13.00;11.68;;;16.70;99.90;;;;;;5070677;28;20259;-74
2022/05/14 05:32:00;;;;;;;12.23;11.13;;;16.70;99.90;;;;;;5071248;28;20620;-74
2022/05/14 05:34:28;;;;;;;11.27;10.27;;;16.70;99.90;;;;;;5070468;28;20735;-75
2022/05/14 05:36:55;;;;;;;14.48;10.55;;;16.70;99.90;;;;;;5070765;28;20206;-75
2022/05/14 05:39:22;;;;;;;12.70;11.40;;;16.80;99.90;;;;;;5071332;28;20202;-75
2022/05/14 05:41:48;;;;;;;13.27;11.23;;;16.80;99.90;;;;;;5070696;28;20294;-74
2022/05/14 05:44:17;;;;;;;12.68;11.38;;;16.80;99.90;;;;;;5071171;28;20202;-75
2022/05/14 05:46:44;;;;;;;12.98;11.68;;;16.80;99.90;;;;;;5070697;28;20245;-74
2022/05/14 05:49:11;;;;;;;15.48;11.00;;;16.70;99.90;;;;;;5070750;28;20217;-74
2022/05/14 05:51:38;;;;;;;13.93;12.57;;;16.80;99.90;;;;;;5070196;28;20210;-74
2022/05/14 05:57:00;;;;;;;12.35;10.93;;;16.80;99.90;;;;;;5034591;28;20617;-74
2022/05/14 05:59:30;;;;;;;12.55;11.38;;;16.80;99.90;;;;;;5070065;28;20201;-74
2022/05/14 06:01:57;;;;;;;12.75;11.45;;;17.00;99.90;;;;;;5070616;28;20202;-74
2022/05/14 06:04:25;;;;;;;13.80;11.52;;;17.10;99.90;;;;;;5070242;28;20202;-74
2022/05/14 06:06:52;;;;;;;13.50;11.48;;;17.20;99.90;;;;;;5070887;28;20242;-74
2022/05/14 06:09:22;;;;;;;11.95;10.02;;;17.30;99.90;;;;;;5071025;28;20206;-73
2022/05/14 06:11:50;;;;;;;12.63;11.32;;;17.20;99.90;;;;;;5070752;28;20252;-74
2022/05/14 06:14:17;;;;;;;13.35;12.02;;;17.40;99.90;;;;;;5070676;28;20630;-73
2022/05/14 06:16:46;;;;;;;12.23;11.02;;;17.50;99.90;;;;;;5069973;28;20206;-74
2022/05/14 06:19:13;;;;;;;14.55;11.30;;;17.40;99.90;;;;;;5070275;28;21155;-73
2022/05/14 06:21:40;;;;;;;13.40;11.18;;;17.70;99.90;;;;;;5070386;28;20197;-75
2022/05/14 06:24:09;;;;;;;13.27;12.00;;;17.80;99.90;;;;;;5070402;28;20716;-75
2022/05/14 06:26:37;;;;;;;14.32;12.68;;;17.90;99.90;;;;;;5070310;28;20199;-75
2022/05/14 06:29:04;;;;;;;15.35;13.95;;;17.90;99.90;;;;;;5070370;28;20209;-75
2022/05/14 06:31:32;;;;;;;14.30;12.90;;;17.80;99.90;;;;;;5070066;28;20658;-75
2022/05/14 06:34:00;;;;;;;13.40;11.68;;;17.80;99.90;;;;;;5070156;28;20661;-75
2022/05/14 06:36:27;;;;;;;13.32;11.95;;;17.90;99.90;;;;;;5070047;28;20658;-75
2022/05/14 06:38:54;;;;;;;13.15;11.85;;;18.00;99.90;;;;;;5070331;28;20661;-75
2022/05/14 06:41:21;;;;;;;14.13;12.77;;;18.30;99.90;;;;;;5070641;28;20682;-74
2022/05/14 06:43:49;;;;;;;12.93;11.15;;;18.50;99.90;;;;;;5070311;28;20237;-73
2022/05/14 06:46:16;;;;;;;13.95;12.23;;;18.60;99.90;;;;;;5070263;28;20245;-74
2022/05/14 06:48:42;;;;;;;13.98;12.52;;;18.70;99.90;;;;;;5069534;28;20218;-73
2022/05/14 06:51:16;;;;;;;13.80;12.50;;;18.90;99.90;;;;;;5070171;28;20263;-73
2022/05/14 06:53:43;;;;;;;13.45;11.85;;;19.20;99.90;;;;;;5069790;28;20210;-74
2022/05/14 06:56:13;;;;;;;13.35;11.23;;;19.00;99.90;;;;;;5070373;28;20202;-74
2022/05/14 06:58:45;;;;;;;13.43;12.13;;;19.10;99.90;;;;;;5070031;28;20194;-73
2022/05/14 07:01:12;;;;;;;14.05;11.85;;;19.10;99.90;;;;;;5070274;28;20202;-73
2022/05/14 07:06:44;;;;;;;13.40;12.10;;;19.30;99.90;;;;;;5070108;28;20244;-74
2022/05/14 07:09:14;;;;;;;11.93;10.77;;;19.60;99.90;;;;;;5070051;28;20583;-73
2022/05/14 07:11:43;;;;;;;11.27;10.15;;;19.70;99.90;;;;;;5073239;28;20207;-73
2022/05/14 07:14:12;;;;;;;11.52;10.38;;;19.70;99.90;;;;;;5073835;28;20246;-73
2022/05/14 07:16:40;;;;;;;13.88;10.55;;;20.00;99.90;;;;;;5073088;28;20256;-74
2022/05/14 07:19:07;;;;;;;12.27;11.18;;;20.10;99.90;;;;;;5073418;28;20259;-74
2022/05/14 07:21:38;;;;;;;13.57;11.45;;;20.30;99.90;;;;;;5073207;28;20213;-76
2022/05/14 07:24:07;;;;;;;13.27;11.18;;;20.90;99.90;;;;;;5073498;28;20295;-76
2022/05/14 07:26:35;;;;;;;11.88;10.57;;;21.70;99.90;;;;;;5072999;28;20248;-76
2022/05/14 07:29:06;;;;;;;12.38;9.98;;;21.30;99.90;;;;;;5073389;28;20209;-76
2022/05/14 07:31:33;;;;;;;12.60;11.15;;;20.80;99.90;;;;;;5072686;28;20198;-73
2022/05/14 07:34:00;;;;;;;12.85;11.50;;;20.60;99.90;;;;;;5073369;28;20259;-74
2022/05/14 07:36:30;;;;;;;12.50;11.30;;;20.30;99.90;;;;;;5072871;28;20218;-74
2022/05/14 07:39:04;;;;;;;11.63;10.52;;;20.70;99.90;;;;;;5073220;28;20206;-73
2022/05/14 07:41:32;;;;;;;13.20;11.05;;;20.90;99.90;;;;;;5072623;28;20653;-74
2022/05/14 07:44:01;;;;;;;11.45;10.23;;;21.10;99.90;;;;;;5073263;28;20320;-73
2022/05/14 07:46:33;;;;;;;11.68;10.57;;;21.30;99.90;;;;;;5072540;28;20206;-73
2022/05/14 07:49:01;;;;;;;10.70;9.68;;;21.60;99.90;;;;;;5072960;28;20214;-76
2022/05/14 07:51:29;;;;;;;9.98;9.10;;;21.70;99.90;;;;;;5072730;28;20207;-76
2022/05/14 07:53:58;;;;;;;12.40;10.73;;;21.80;99.90;;;;;;5073171;28;20207;-75
2022/05/14 07:56:24;;;;;;;11.15;9.02;;;22.00;99.90;;;;;;5072941;28;20202;-76
2022/05/14 07:58:51;;;;;;;10.85;9.75;;;21.80;99.90;;;;;;5073160;28;20256;-75
2022/05/14 08:01:18;;;;;;;10.13;9.20;;;22.10;99.90;;;;;;5073094;28;20209;-78
2022/05/14 08:03:47;;;;;;;11.93;8.73;;;22.40;99.90;;;;;;5072456;28;20238;-75
2022/05/14 08:06:15;;;;;;;8.77;7.90;;;22.50;99.90;;;;;;5072949;28;20301;-75
2022/05/14 08:08:43;;;;;;;9.90;8.35;;;22.50;99.90;;;;;;5072256;28;20670;-75
2022/05/14 08:11:12;;;;;;;9.02;8.23;;;22.60;99.90;;;;;;5072678;28;20206;-75
2022/05/14 08:13:40;;;;;;;8.75;8.05;;;22.70;99.90;;;;;;5072215;28;20206;-76
2022/05/14 08:16:07;;;;;;;9.23;7.65;;;22.70;99.90;;;;;;5072170;28;20198;-75
2022/05/14 08:18:34;;;;;;;8.68;7.82;;;22.90;99.90;;;;;;5072098;28;20654;-75
2022/05/14 08:24:29;;;;;;;9.20;7.57;;;23.00;99.90;;;;;;5072334;28;20198;-76
2022/05/14 08:26:36;;;;;;;7.40;6.78;;;23.80;99.90;;;;;;5071855;28;20193;-76
2022/05/14 08:29:03;;;;;;;7.57;6.90;;;23.80;99.90;;;;;;5072327;28;20206;-75
2022/05/14 08:31:30;;;;;;;8.23;6.90;;;23.70;99.90;;;;;;5071817;28;20264;-75
2022/05/14 08:33:57;;;;;;;6.63;6.05;;;23.80;99.90;;;;;;5072346;28;20202;-75
2022/05/14 08:36:25;;;;;;;7.10;6.47;;;24.10;99.90;;;;;;5072181;28;20259;-76
2022/05/14 08:38:53;;;;;;;7.10;6.15;;;24.60;99.90;;;;;;5072247;28;20202;-76
2022/05/14 08:41:21;;;;;;;7.18;6.53;;;25.00;99.90;;;;;;5072465;28;20208;-75
2022/05/14 08:43:53;;;;;;;6.45;5.78;;;24.50;99.90;;;;;;5071497;28;20230;-75
2022/05/14 08:46:23;;;;;;;8.93;6.22;;;24.50;99.90;;;;;;5072247;28;20255;-75
2022/05/14 08:48:52;;;;;;;7.85;6.07;;;24.70;99.90;;;;;;5071614;28;20618;-76
2022/05/14 08:51:23;;;;;;;6.43;5.93;;;24.70;99.90;;;;;;5071983;28;20259;-76
2022/05/14 08:53:51;;;;;;;9.07;7.13;;;24.90;99.90;;;;;;5072009;28;20210;-75
2022/05/14 08:56:29;;;;;;;7.38;6.25;;;24.90;99.90;;;;;;5072207;28;20210;-73
2022/05/14 08:59:16;;;;;;;8.82;7.72;;;25.00;99.90;;;;;;5071557;28;20202;-73
2022/05/14 09:01:45;;;;;;;19.27;12.27;;;25.30;99.90;;;;;;5071146;28;20545;-73
2022/05/14 09:04:17;;;;;;;11.38;8.98;;;25.30;99.90;;;;;;5071312;28;20706;-74
2022/05/14 09:06:46;;;;;;;6.43;5.63;;;25.90;99.90;;;;;;5071142;28;20283;-74
2022/05/14 09:09:13;;;;;;;7.20;6.60;;;26.40;99.90;;;;;;5071610;28;20214;-73
2022/05/14 09:11:42;;;;;;;7.28;5.20;;;26.60;99.90;;;;;;5070987;28;20248;-74
2022/05/14 09:14:20;;;;;;;5.63;5.03;;;26.60;99.90;;;;;;5071148;28;20202;-74
2022/05/14 09:16:50;;;;;;;5.18;4.68;;;26.40;99.90;;;;;;5071061;28;20206;-73
2022/05/14 09:19:20;;;;;;;6.40;5.45;;;26.60;99.90;;;;;;5071363;28;20292;-73
2022/05/14 09:21:54;;;;;;;4.63;4.30;;;26.60;99.90;;;;;;5070724;28;20202;-73
2022/05/14 09:24:25;;;;;;;4.88;4.32;;;26.60;99.90;;;;;;5071412;28;20653;-73
2022/05/14 09:26:54;;;;;;;4.53;3.85;;;27.80;99.90;;;;;;5071415;28;20198;-73
2022/05/14 09:29:27;;;;;;;5.15;4.25;;;28.10;99.90;;;;;;5071435;28;20210;-74
2022/05/14 09:31:58;;;;;;;5.05;4.50;;;30.10;99.90;;;;;;5070830;28;20202;-74
2022/05/14 09:34:26;;;;;;;5.25;4.75;;;29.80;99.90;;;;;;5070470;28;20205;-74
2022/05/14 09:36:53;;;;;;;11.43;5.07;;;30.10;99.90;;;;;;5071386;28;20206;-73
2022/05/14 09:39:22;;;;;;;5.90;4.57;;;29.80;99.90;;;;;;5071183;28;20206;-76
2022/05/14 09:41:51;;;;;;;5.22;4.53;;;31.30;99.90;;;;;;5071065;28;20228;-75
2022/05/14 09:44:22;;;;;;;5.95;4.22;;;31.00;99.90;;;;;;5071325;28;20233;-76
2022/05/14 09:46:50;;;;;;;4.63;4.32;;;30.80;99.90;;;;;;5071202;28;20212;-76
2022/05/14 09:49:24;;;;;;;4.47;4.10;;;32.50;99.90;;;;;;5070783;28;20213;-76
2022/05/14 09:51:55;;;;;;;4.82;4.43;;;31.60;99.90;;;;;;5070983;28;20263;-75
2022/05/14 09:54:26;;;;;;;7.20;4.70;;;31.30;99.90;;;;;;5071149;28;20209;-76
2022/05/14 09:57:17;;;;;;;4.97;4.57;;;31.70;99.90;;;;;;5070534;28;20718;-76
2022/05/14 10:00:08;;;;;;;4.70;4.30;;;31.70;99.90;;;;;;5070370;28;20252;-76
2022/05/14 10:03:01;;;;;;;6.22;4.68;;;32.00;99.90;;;;;;5070497;28;20262;-76
2022/05/14 10:05:42;;;;;;;14.05;4.68;;;31.10;99.90;;;;;;5070208;28;20230;-76
2022/05/14 10:08:20;;;;;;;4.72;4.32;;;32.20;99.90;;;;;;5070810;28;20216;-74
2022/05/14 10:10:54;;;;;;;5.10;4.70;;;33.10;99.90;;;;;;5070311;28;20577;-74
2022/05/14 10:13:28;;;;;;;5.53;4.30;;;33.70;99.90;;;;;;5070772;28;20673;-74
2022/05/14 10:16:03;;;;;;;4.95;4.55;;;34.60;99.90;;;;;;5070308;28;20743;-74
2022/05/14 10:18:39;;;;;;;4.40;4.10;;;33.20;99.90;;;;;;5070234;28;20204;-75
2022/05/14 10:21:11;;;;;;;4.38;3.97;;;35.10;99.90;;;;;;5070635;28;20246;-75
2022/05/14 10:26:58;;;;;;;4.00;3.70;;;32.60;99.90;;;;;;5069918;28;20246;-75
2022/05/14 10:29:37;;;;;;;4.35;3.90;;;33.30;99.90;;;;;;5070104;28;20201;-75
2022/05/14 10:32:07;;;;;;;4.68;4.38;;;32.90;99.90;;;;;;5070678;28;20209;-76
2022/05/14 10:34:46;;;;;;;4.72;3.63;;;30.00;99.90;;;;;;5070043;28;20206;-76
2022/05/14 10:37:24;;;;;;;6.00;4.18;;;28.30;99.90;;;;;;5070487;28;20266;-77
2022/05/14 10:39:58;;;;;;;4.13;3.78;;;27.60;99.90;;;;;;5070574;28;20217;-76
2022/05/14 10:42:34;;;;;;;4.10;3.70;;;27.90;99.90;;;;;;5070054;28;20257;-77
2022/05/14 10:45:07;;;;;;;7.00;6.38;;;27.80;99.90;;;;;;5072930;28;20683;-76
2022/05/14 10:47:39;;;;;;;7.50;5.03;;;28.10;99.90;;;;;;5073981;28;20267;-75
2022/05/14 10:50:14;;;;;;;5.47;4.53;;;28.20;99.90;;;;;;5073987;28;20210;-76
2022/05/14 10:52:44;;;;;;;5.75;3.92;;;28.20;99.90;;;;;;5073521;28;20665;-74
2022/05/14 10:55:18;;;;;;;4.75;4.28;;;28.20;99.90;;;;;;5073998;28;20331;-73
2022/05/14 10:57:49;;;;;;;3.40;3.08;;;28.00;99.90;;;;;;5073592;28;20259;-73
2022/05/14 11:00:24;;;;;;;5.15;4.65;;;28.30;99.90;;;;;;5073885;28;20202;-77
2022/05/14 11:02:58;;;;;;;5.45;4.03;;;28.40;99.90;;;;;;5074203;28;20198;-76
2022/05/14 11:05:32;;;;;;;5.63;4.95;;;28.30;99.90;;;;;;5073189;28;20230;-73
2022/05/14 11:08:10;;;;;;;5.82;4.05;;;28.40;99.90;;;;;;5073961;28;20202;-72
2022/05/14 11:10:37;;;;;;;4.93;3.95;;;28.10;99.90;;;;;;5073273;28;20209;-74
2022/05/14 11:13:14;;;;;;;4.15;3.85;;;28.40;99.90;;;;;;5073616;28;20263;-74
2022/05/14 11:15:41;;;;;;;4.63;4.20;;;28.70;99.90;;;;;;5073158;28;20730;-74
2022/05/14 11:18:10;;;;;;;4.18;3.80;;;28.80;99.90;;;;;;5073868;28;20206;-75
2022/05/14 11:20:52;;;;;;;4.63;4.20;;;28.40;99.90;;;;;;5073295;28;20205;-74
2022/05/14 11:23:19;;;;;;;5.25;4.82;;;28.30;99.90;;;;;;5073906;28;20211;-73
2022/05/14 11:25:46;;;;;;;5.78;4.28;;;28.40;99.90;;;;;;5073080;28;20241;-75
2022/05/14 11:28:25;;;;;;;8.48;4.90;;;28.50;99.90;;;;;;5073438;28;20619;-75
2022/05/14 11:30:55;;;;;;;4.97;4.30;;;28.60;99.90;;;;;;5073729;28;20205;-74
2022/05/14 11:33:25;;;;;;;4.90;4.18;;;28.50;99.90;;;;;;5073758;28;20210;-74
2022/05/14 11:35:56;;;;;;;4.32;3.72;;;28.70;99.90;;;;;;5073776;28;20255;-74
2022/05/14 11:38:33;;;;;;;3.47;3.17;;;28.80;99.90;;;;;;5073383;28;20259;-76
2022/05/14 11:41:02;;;;;;;5.88;4.40;;;28.50;99.90;;;;;;5073292;28;20259;-77
2022/05/14 11:43:31;;;;;;;5.90;4.32;;;28.70;99.90;;;;;;5072858;28;20552;-75
2022/05/14 11:46:15;;;;;;;4.78;4.38;;;28.80;99.90;;;;;;5073219;28;20234;-77
2022/05/14 11:48:48;;;;;;;6.22;3.20;;;29.20;99.90;;;;;;5072699;28;20210;-73
2022/05/14 11:51:28;;;;;;;4.10;3.55;;;29.30;99.90;;;;;;5072761;28;20582;-75
2022/05/14 11:54:03;;;;;;;4.72;3.42;;;28.90;99.90;;;;;;5072783;28;20664;-72
2022/05/14 11:56:34;;;;;;;4.00;3.60;;;29.20;99.90;;;;;;5071957;28;20258;-74
2022/05/14 11:59:06;;;;;;;5.40;4.07;;;29.00;99.90;;;;;;5072932;28;20277;-75
2022/05/14 12:01:37;;;;;;;3.97;3.58;;;29.20;99.90;;;;;;5072272;28;20201;-74
2022/05/14 12:04:14;;;;;;;3.80;3.45;;;29.50;99.90;;;;;;5072866;28;20241;-75
2022/05/14 12:07:03;;;;;;;3.53;3.28;;;29.20;99.90;;;;;;5072439;28;20259;-75
2022/05/14 12:09:52;;;;;;;3.67;3.38;;;29.70;99.90;;;;;;5072620;28;20251;-73
2022/05/14 12:12:25;;;;;;;4.25;3.63;;;29.60;99.90;;;;;;5073089;28;20241;-76
2022/05/14 12:14:52;;;;;;;8.88;4.40;;;29.50;99.90;;;;;;5072835;28;20669;-73
2022/05/14 12:17:22;;;;;;;4.43;3.47;;;29.00;99.90;;;;;;5072897;28;20198;-76
2022/05/14 12:19:55;;;;;;;4.72;3.42;;;29.40;99.90;;;;;;5072415;28;20692;-74
2022/05/14 12:22:29;;;;;;;3.63;3.33;;;29.60;99.90;;;;;;5072670;28;20202;-74
2022/05/14 12:24:59;;;;;;;2.97;2.78;;;29.60;99.90;;;;;;5072555;28;20264;-73
2022/05/14 12:27:27;;;;;;;3.13;2.88;;;29.80;99.90;;;;;;5072282;28;20202;-75
2022/05/14 12:29:57;;;;;;;6.85;3.50;;;30.00;99.90;;;;;;5072272;28;20198;-77
2022/05/14 12:35:19;;;;;;;5.72;3.90;;;29.80;99.90;;;;;;5072179;28;20205;-76
2022/05/14 12:37:48;;;;;;;3.80;3.55;;;30.00;99.90;;;;;;5071607;28;20247;-75
2022/05/14 12:40:26;;;;;;;6.00;3.53;;;30.00;99.90;;;;;;5071970;28;20293;-75
2022/05/14 12:42:54;;;;;;;3.30;3.03;;;30.10;99.90;;;;;;5072099;28;20206;-74
2022/05/14 12:45:32;;;;;;;3.88;3.15;;;29.70;99.90;;;;;;5072191;28;20597;-76
2022/05/14 12:48:00;;;;;;;5.20;2.88;;;30.10;99.90;;;;;;5071959;28;20201;-76
2022/05/14 12:50:30;;;;;;;5.47;3.38;;;29.70;99.90;;;;;;5071209;28;20639;-77
2022/05/14 12:53:02;;;;;;;4.50;3.05;;;29.80;99.90;;;;;;5071709;28;20206;-76
2022/05/14 12:55:32;;;;;;;5.28;3.92;;;29.60;99.90;;;;;;5071344;28;20669;-75
2022/05/14 12:58:02;;;;;;;3.50;3.20;;;29.90;99.90;;;;;;5071776;28;20251;-75
2022/05/14 13:00:31;;;;;;;5.20;3.83;;;30.10;99.90;;;;;;5071388;28;20202;-76
2022/05/14 13:03:03;;;;;;;3.35;3.05;;;30.00;99.90;;;;;;5071689;28;20203;-77
2022/05/14 13:05:35;;;;;;;3.08;2.88;;;29.90;99.90;;;;;;5070975;28;20362;-74
2022/05/14 13:08:08;;;;;;;3.95;3.20;;;30.00;99.90;;;;;;5070693;28;20263;-74
2022/05/14 13:10:37;;;;;;;4.85;3.28;;;29.90;99.90;;;;;;5071025;28;20206;-76
2022/05/14 13:13:07;;;;;;;6.35;3.42;;;30.10;99.90;;;;;;5071484;28;20297;-77
2022/05/14 13:15:37;;;;;;;5.45;3.00;;;30.40;99.90;;;;;;5070890;28;20198;-76